sensor_id;sensor_type;location;lat;lon;timestamp;P1;durP1;ratioP1;P2;durP2;ratioP2
16624;SDS011;8426;48.496;9.098;2023-03-19T00:02:28;5.55;;;3.00;;
16624;SDS011;8426;48.496;9.098;2023-03-19T00:07:34;5.68;;;2.92;;
16624;SDS011;8426;48.496;9.098;2023-03-19T00:12:37;5.03;;;2.88;;
16624;SDS011;8426;48.496;9.098;2023-03-19T00:17:42;4.95;;;2.22;;
16624;SDS011;8426;48.496;9.098;2023-03-19T00:22:54;5.82;;;2.33;;
16624;SDS011;8426;48.496;9.098;2023-03-19T00:27:57;5.10;;;2.20;;
16624;SDS011;8426;48.496;9.098;2023-03-19T00:33:01;5.38;;;2.38;;
16624;SDS011;8426;48.496;9.098;2023-03-19T00:38:07;4.68;;;2.40;;
16624;SDS011;8426;48.496;9.098;2023-03-19T00:43:11;5.80;;;2.72;;
16624;SDS011;8426;48.496;9.098;2023-03-19T00:48:16;4.10;;;2.20;;
16624;SDS011;8426;48.496;9.098;2023-03-19T00:53:21;5.38;;;2.60;;
16624;SDS011;8426;48.496;9.098;2023-03-19T00:58:24;4.72;;;2.45;;
16624;SDS011;8426;48.496;9.098;2023-03-19T01:03:27;8.32;;;2.97;;
16624;SDS011;8426;48.496;9.098;2023-03-19T01:08:32;6.63;;;3.00;;
16624;SDS011;8426;48.496;9.098;2023-03-19T01:13:36;9.23;;;3.00;;
16624;SDS011;8426;48.496;9.098;2023-03-19T01:18:39;6.45;;;3.15;;
16624;SDS011;8426;48.496;9.098;2023-03-19T01:23:45;10.73;;;3.40;;
16624;SDS011;8426;48.496;9.098;2023-03-19T01:28:48;4.70;;;3.15;;
16624;SDS011;8426;48.496;9.098;2023-03-19T01:39:12;5.93;;;3.00;;
16624;SDS011;8426;48.496;9.098;2023-03-19T01:44:25;6.03;;;3.25;;
16624;SDS011;8426;48.496;9.098;2023-03-19T01:49:29;7.85;;;2.60;;
16624;SDS011;8426;48.496;9.098;2023-03-19T01:54:34;5.13;;;2.63;;
16624;SDS011;8426;48.496;9.098;2023-03-19T01:59:39;4.30;;;2.55;;
16624;SDS011;8426;48.496;9.098;2023-03-19T02:04:46;4.05;;;2.28;;
16624;SDS011;8426;48.496;9.098;2023-03-19T02:09:56;6.80;;;3.00;;
16624;SDS011;8426;48.496;9.098;2023-03-19T02:15:00;8.10;;;3.03;;
16624;SDS011;8426;48.496;9.098;2023-03-19T02:20:05;11.63;;;4.55;;
16624;SDS011;8426;48.496;9.098;2023-03-19T02:25:15;5.13;;;2.60;;
16624;SDS011;8426;48.496;9.098;2023-03-19T02:30:29;4.90;;;2.72;;
16624;SDS011;8426;48.496;9.098;2023-03-19T02:35:35;6.68;;;3.03;;
16624;SDS011;8426;48.496;9.098;2023-03-19T02:40:40;7.68;;;3.00;;
16624;SDS011;8426;48.496;9.098;2023-03-19T02:45:49;4.00;;;2.20;;
16624;SDS011;8426;48.496;9.098;2023-03-19T02:50:53;5.65;;;2.50;;
16624;SDS011;8426;48.496;9.098;2023-03-19T02:55:57;5.57;;;2.33;;
16624;SDS011;8426;48.496;9.098;2023-03-19T03:01:03;3.78;;;2.38;;
16624;SDS011;8426;48.496;9.098;2023-03-19T03:06:06;5.95;;;2.53;;
16624;SDS011;8426;48.496;9.098;2023-03-19T03:11:10;6.30;;;2.53;;
16624;SDS011;8426;48.496;9.098;2023-03-19T03:16:15;5.07;;;2.65;;
16624;SDS011;8426;48.496;9.098;2023-03-19T03:21:19;4.47;;;2.65;;
16624;SDS011;8426;48.496;9.098;2023-03-19T03:26:22;3.75;;;2.20;;
16624;SDS011;8426;48.496;9.098;2023-03-19T03:31:27;4.22;;;2.55;;
16624;SDS011;8426;48.496;9.098;2023-03-19T03:36:31;5.95;;;2.78;;
16624;SDS011;8426;48.496;9.098;2023-03-19T03:41:34;3.47;;;2.15;;
16624;SDS011;8426;48.496;9.098;2023-03-19T03:46:39;4.68;;;2.33;;
16624;SDS011;8426;48.496;9.098;2023-03-19T03:51:46;5.10;;;2.10;;
16624;SDS011;8426;48.496;9.098;2023-03-19T03:56:50;3.75;;;1.90;;
16624;SDS011;8426;48.496;9.098;2023-03-19T04:01:55;3.90;;;2.20;;
16624;SDS011;8426;48.496;9.098;2023-03-19T04:06:58;6.97;;;2.20;;
16624;SDS011;8426;48.496;9.098;2023-03-19T04:12:03;4.72;;;2.03;;
16624;SDS011;8426;48.496;9.098;2023-03-19T04:17:14;5.60;;;2.22;;
16624;SDS011;8426;48.496;9.098;2023-03-19T04:22:23;5.72;;;2.78;;
16624;SDS011;8426;48.496;9.098;2023-03-19T04:27:27;4.78;;;2.58;;
16624;SDS011;8426;48.496;9.098;2023-03-19T04:32:38;4.22;;;2.10;;
16624;SDS011;8426;48.496;9.098;2023-03-19T04:37:48;3.47;;;2.08;;
16624;SDS011;8426;48.496;9.098;2023-03-19T04:42:51;5.03;;;2.20;;
16624;SDS011;8426;48.496;9.098;2023-03-19T04:47:57;4.82;;;1.95;;
16624;SDS011;8426;48.496;9.098;2023-03-19T04:53:02;7.20;;;2.40;;
16624;SDS011;8426;48.496;9.098;2023-03-19T04:58:11;3.97;;;2.05;;
16624;SDS011;8426;48.496;9.098;2023-03-19T05:03:15;4.82;;;1.60;;
16624;SDS011;8426;48.496;9.098;2023-03-19T05:08:19;5.35;;;1.65;;
16624;SDS011;8426;48.496;9.098;2023-03-19T05:13:28;2.38;;;1.50;;
16624;SDS011;8426;48.496;9.098;2023-03-19T05:18:37;6.85;;;2.20;;
16624;SDS011;8426;48.496;9.098;2023-03-19T05:23:43;4.55;;;2.67;;
16624;SDS011;8426;48.496;9.098;2023-03-19T05:28:48;7.28;;;2.63;;
16624;SDS011;8426;48.496;9.098;2023-03-19T05:33:55;5.75;;;2.55;;
16624;SDS011;8426;48.496;9.098;2023-03-19T05:38:59;4.65;;;1.92;;
16624;SDS011;8426;48.496;9.098;2023-03-19T05:44:06;4.95;;;2.00;;
16624;SDS011;8426;48.496;9.098;2023-03-19T05:49:13;4.93;;;2.47;;
16624;SDS011;8426;48.496;9.098;2023-03-19T05:54:23;7.20;;;2.72;;
16624;SDS011;8426;48.496;9.098;2023-03-19T05:59:28;3.92;;;2.70;;
16624;SDS011;8426;48.496;9.098;2023-03-19T06:04:34;5.13;;;2.90;;
16624;SDS011;8426;48.496;9.098;2023-03-19T06:09:39;6.63;;;2.80;;
16624;SDS011;8426;48.496;9.098;2023-03-19T06:14:49;6.72;;;2.90;;
16624;SDS011;8426;48.496;9.098;2023-03-19T06:19:54;4.95;;;2.55;;
16624;SDS011;8426;48.496;9.098;2023-03-19T06:25:01;8.60;;;3.38;;
16624;SDS011;8426;48.496;9.098;2023-03-19T06:30:05;6.15;;;2.80;;
16624;SDS011;8426;48.496;9.098;2023-03-19T06:40:20;3.83;;;2.75;;
16624;SDS011;8426;48.496;9.098;2023-03-19T06:55:50;7.85;;;2.63;;
16624;SDS011;8426;48.496;9.098;2023-03-19T07:01:01;7.05;;;2.28;;
16624;SDS011;8426;48.496;9.098;2023-03-19T07:06:12;7.70;;;3.65;;
16624;SDS011;8426;48.496;9.098;2023-03-19T07:11:22;13.30;;;5.15;;
16624;SDS011;8426;48.496;9.098;2023-03-19T07:16:26;11.80;;;6.28;;
16624;SDS011;8426;48.496;9.098;2023-03-19T07:21:40;12.73;;;7.65;;
16624;SDS011;8426;48.496;9.098;2023-03-19T07:26:53;6.88;;;3.80;;
16624;SDS011;8426;48.496;9.098;2023-03-19T07:32:00;4.75;;;2.60;;
16624;SDS011;8426;48.496;9.098;2023-03-19T07:37:06;4.63;;;2.17;;
16624;SDS011;8426;48.496;9.098;2023-03-19T07:42:11;6.53;;;2.38;;
16624;SDS011;8426;48.496;9.098;2023-03-19T07:47:15;7.00;;;2.33;;
16624;SDS011;8426;48.496;9.098;2023-03-19T07:52:33;6.97;;;2.10;;
16624;SDS011;8426;48.496;9.098;2023-03-19T07:57:37;4.05;;;2.17;;
16624;SDS011;8426;48.496;9.098;2023-03-19T08:02:48;5.35;;;2.30;;
16624;SDS011;8426;48.496;9.098;2023-03-19T08:07:54;2.92;;;1.80;;
16624;SDS011;8426;48.496;9.098;2023-03-19T08:13:03;4.50;;;1.70;;
16624;SDS011;8426;48.496;9.098;2023-03-19T08:18:09;2.03;;;1.20;;
16624;SDS011;8426;48.496;9.098;2023-03-19T08:23:19;3.67;;;1.65;;
16624;SDS011;8426;48.496;9.098;2023-03-19T08:28:23;3.45;;;1.98;;
16624;SDS011;8426;48.496;9.098;2023-03-19T08:33:34;8.05;;;2.50;;
16624;SDS011;8426;48.496;9.098;2023-03-19T08:38:42;6.57;;;2.55;;
16624;SDS011;8426;48.496;9.098;2023-03-19T08:43:57;3.58;;;2.13;;
16624;SDS011;8426;48.496;9.098;2023-03-19T08:49:03;5.90;;;2.70;;
16624;SDS011;8426;48.496;9.098;2023-03-19T08:54:08;4.03;;;2.17;;
16624;SDS011;8426;48.496;9.098;2023-03-19T08:59:15;3.40;;;2.05;;
16624;SDS011;8426;48.496;9.098;2023-03-19T09:04:19;3.50;;;1.92;;
16624;SDS011;8426;48.496;9.098;2023-03-19T09:09:25;4.15;;;1.20;;
16624;SDS011;8426;48.496;9.098;2023-03-19T09:14:28;5.65;;;0.93;;
16624;SDS011;8426;48.496;9.098;2023-03-19T09:19:32;3.88;;;1.40;;
16624;SDS011;8426;48.496;9.098;2023-03-19T09:24:37;3.05;;;1.40;;
16624;SDS011;8426;48.496;9.098;2023-03-19T09:29:46;3.70;;;1.30;;
16624;SDS011;8426;48.496;9.098;2023-03-19T09:34:51;3.13;;;1.20;;
16624;SDS011;8426;48.496;9.098;2023-03-19T09:40:02;1.77;;;1.15;;
16624;SDS011;8426;48.496;9.098;2023-03-19T09:45:11;1.92;;;0.80;;
16624;SDS011;8426;48.496;9.098;2023-03-19T09:50:18;3.10;;;1.40;;
16624;SDS011;8426;48.496;9.098;2023-03-19T09:55:33;3.47;;;1.45;;
16624;SDS011;8426;48.496;9.098;2023-03-19T10:00:55;5.47;;;1.08;;
16624;SDS011;8426;48.496;9.098;2023-03-19T10:06:05;1.83;;;0.98;;
16624;SDS011;8426;48.496;9.098;2023-03-19T10:11:30;1.98;;;0.85;;
16624;SDS011;8426;48.496;9.098;2023-03-19T10:16:45;4.18;;;1.27;;
16624;SDS011;8426;48.496;9.098;2023-03-19T10:22:10;4.00;;;1.00;;
16624;SDS011;8426;48.496;9.098;2023-03-19T10:27:20;5.05;;;1.20;;
16624;SDS011;8426;48.496;9.098;2023-03-19T10:32:28;3.50;;;1.17;;
16624;SDS011;8426;48.496;9.098;2023-03-19T10:37:47;7.32;;;1.20;;
16624;SDS011;8426;48.496;9.098;2023-03-19T10:43:05;1.30;;;0.93;;
16624;SDS011;8426;48.496;9.098;2023-03-19T10:48:19;3.25;;;1.05;;
16624;SDS011;8426;48.496;9.098;2023-03-19T10:53:35;4.88;;;1.05;;
16624;SDS011;8426;48.496;9.098;2023-03-19T10:58:41;8.30;;;1.30;;
16624;SDS011;8426;48.496;9.098;2023-03-19T11:04:15;2.80;;;1.10;;
16624;SDS011;8426;48.496;9.098;2023-03-19T11:09:29;4.90;;;1.20;;
16624;SDS011;8426;48.496;9.098;2023-03-19T11:14:38;5.53;;;1.00;;
16624;SDS011;8426;48.496;9.098;2023-03-19T11:20:12;2.13;;;0.90;;
16624;SDS011;8426;48.496;9.098;2023-03-19T11:25:24;1.60;;;0.80;;
16624;SDS011;8426;48.496;9.098;2023-03-19T11:30:35;1.65;;;0.80;;
16624;SDS011;8426;48.496;9.098;2023-03-19T11:35:47;2.40;;;1.00;;
16624;SDS011;8426;48.496;9.098;2023-03-19T11:40:56;4.05;;;1.00;;
16624;SDS011;8426;48.496;9.098;2023-03-19T11:46:13;2.92;;;1.02;;
16624;SDS011;8426;48.496;9.098;2023-03-19T11:51:29;5.68;;;1.17;;
16624;SDS011;8426;48.496;9.098;2023-03-19T11:56:39;2.65;;;0.80;;
16624;SDS011;8426;48.496;9.098;2023-03-19T12:01:59;4.88;;;1.10;;
16624;SDS011;8426;48.496;9.098;2023-03-19T12:07:24;2.50;;;1.02;;
16624;SDS011;8426;48.496;9.098;2023-03-19T12:12:36;1.73;;;1.08;;
16624;SDS011;8426;48.496;9.098;2023-03-19T12:17:49;3.13;;;1.15;;
16624;SDS011;8426;48.496;9.098;2023-03-19T12:23:04;2.78;;;1.10;;
16624;SDS011;8426;48.496;9.098;2023-03-19T12:28:13;4.47;;;0.93;;
16624;SDS011;8426;48.496;9.098;2023-03-19T12:33:32;3.47;;;1.10;;
16624;SDS011;8426;48.496;9.098;2023-03-19T12:38:50;2.13;;;1.02;;
16624;SDS011;8426;48.496;9.098;2023-03-19T12:43:57;3.25;;;1.30;;
16624;SDS011;8426;48.496;9.098;2023-03-19T12:49:06;3.05;;;1.30;;
16624;SDS011;8426;48.496;9.098;2023-03-19T12:54:17;1.67;;;1.10;;
16624;SDS011;8426;48.496;9.098;2023-03-19T12:59:26;4.35;;;1.23;;
16624;SDS011;8426;48.496;9.098;2023-03-19T13:04:34;4.43;;;1.20;;
16624;SDS011;8426;48.496;9.098;2023-03-19T13:09:42;6.45;;;1.20;;
16624;SDS011;8426;48.496;9.098;2023-03-19T13:14:54;2.47;;;1.00;;
16624;SDS011;8426;48.496;9.098;2023-03-19T13:20:06;4.20;;;1.08;;
16624;SDS011;8426;48.496;9.098;2023-03-19T13:25:21;5.00;;;1.20;;
16624;SDS011;8426;48.496;9.098;2023-03-19T13:30:27;4.72;;;1.33;;
16624;SDS011;8426;48.496;9.098;2023-03-19T13:35:37;2.55;;;1.10;;
16624;SDS011;8426;48.496;9.098;2023-03-19T13:40:45;4.30;;;1.17;;
16624;SDS011;8426;48.496;9.098;2023-03-19T13:45:54;1.50;;;0.90;;
16624;SDS011;8426;48.496;9.098;2023-03-19T13:51:21;5.73;;;1.20;;
16624;SDS011;8426;48.496;9.098;2023-03-19T13:56:26;4.25;;;1.17;;
16624;SDS011;8426;48.496;9.098;2023-03-19T14:01:34;3.05;;;1.00;;
16624;SDS011;8426;48.496;9.098;2023-03-19T14:06:45;4.35;;;1.02;;
16624;SDS011;8426;48.496;9.098;2023-03-19T14:11:51;1.00;;;0.65;;
16624;SDS011;8426;48.496;9.098;2023-03-19T14:16:55;0.90;;;0.70;;
16624;SDS011;8426;48.496;9.098;2023-03-19T14:22:07;1.85;;;0.50;;
16624;SDS011;8426;48.496;9.098;2023-03-19T14:27:13;2.33;;;0.55;;
16624;SDS011;8426;48.496;9.098;2023-03-19T14:32:29;5.00;;;0.70;;
16624;SDS011;8426;48.496;9.098;2023-03-19T14:37:40;4.13;;;0.77;;
16624;SDS011;8426;48.496;9.098;2023-03-19T14:42:53;0.55;;;0.52;;
16624;SDS011;8426;48.496;9.098;2023-03-19T14:48:07;3.70;;;0.70;;
16624;SDS011;8426;48.496;9.098;2023-03-19T14:53:24;1.55;;;0.60;;
16624;SDS011;8426;48.496;9.098;2023-03-19T14:58:37;1.52;;;0.57;;
16624;SDS011;8426;48.496;9.098;2023-03-19T15:03:53;0.90;;;0.75;;
16624;SDS011;8426;48.496;9.098;2023-03-19T15:08:59;1.10;;;0.73;;
16624;SDS011;8426;48.496;9.098;2023-03-19T15:14:17;1.02;;;0.80;;
16624;SDS011;8426;48.496;9.098;2023-03-19T15:19:34;3.92;;;1.10;;
16624;SDS011;8426;48.496;9.098;2023-03-19T15:24:48;4.47;;;1.13;;
16624;SDS011;8426;48.496;9.098;2023-03-19T15:29:52;4.82;;;1.20;;
16624;SDS011;8426;48.496;9.098;2023-03-19T15:35:12;4.13;;;1.00;;
16624;SDS011;8426;48.496;9.098;2023-03-19T15:40:18;3.60;;;1.02;;
16624;SDS011;8426;48.496;9.098;2023-03-19T15:45:26;1.88;;;1.02;;
16624;SDS011;8426;48.496;9.098;2023-03-19T15:50:36;2.08;;;0.98;;
16624;SDS011;8426;48.496;9.098;2023-03-19T15:55:46;1.42;;;0.88;;
16624;SDS011;8426;48.496;9.098;2023-03-19T16:00:53;2.38;;;0.98;;
16624;SDS011;8426;48.496;9.098;2023-03-19T16:06:00;4.00;;;1.17;;
16624;SDS011;8426;48.496;9.098;2023-03-19T16:11:14;1.45;;;0.70;;
16624;SDS011;8426;48.496;9.098;2023-03-19T16:16:33;1.52;;;0.85;;
16624;SDS011;8426;48.496;9.098;2023-03-19T16:21:40;2.13;;;0.95;;
16624;SDS011;8426;48.496;9.098;2023-03-19T16:26:48;1.27;;;0.82;;
16624;SDS011;8426;48.496;9.098;2023-03-19T16:31:58;2.15;;;0.90;;
16624;SDS011;8426;48.496;9.098;2023-03-19T16:42:38;2.83;;;0.95;;
16624;SDS011;8426;48.496;9.098;2023-03-19T16:47:44;2.85;;;1.17;;
16624;SDS011;8426;48.496;9.098;2023-03-19T16:52:50;4.30;;;1.40;;
16624;SDS011;8426;48.496;9.098;2023-03-19T16:57:56;3.20;;;1.40;;
16624;SDS011;8426;48.496;9.098;2023-03-19T17:03:05;1.67;;;1.15;;
16624;SDS011;8426;48.496;9.098;2023-03-19T17:08:16;2.30;;;1.15;;
16624;SDS011;8426;48.496;9.098;2023-03-19T17:13:24;1.92;;;1.15;;
16624;SDS011;8426;48.496;9.098;2023-03-19T17:18:31;4.38;;;1.58;;
16624;SDS011;8426;48.496;9.098;2023-03-19T17:23:37;5.22;;;1.20;;
16624;SDS011;8426;48.496;9.098;2023-03-19T17:28:43;3.58;;;1.13;;
16624;SDS011;8426;48.496;9.098;2023-03-19T17:33:46;4.55;;;1.20;;
16624;SDS011;8426;48.496;9.098;2023-03-19T17:39:13;4.07;;;1.35;;
16624;SDS011;8426;48.496;9.098;2023-03-19T17:44:19;2.50;;;1.10;;
16624;SDS011;8426;48.496;9.098;2023-03-19T17:49:23;2.45;;;1.05;;
16624;SDS011;8426;48.496;9.098;2023-03-19T17:54:29;3.63;;;1.20;;
16624;SDS011;8426;48.496;9.098;2023-03-19T17:59:34;1.38;;;0.93;;
16624;SDS011;8426;48.496;9.098;2023-03-19T18:04:38;2.55;;;1.00;;
16624;SDS011;8426;48.496;9.098;2023-03-19T18:09:41;2.95;;;1.65;;
16624;SDS011;8426;48.496;9.098;2023-03-19T18:14:47;3.45;;;1.48;;
16624;SDS011;8426;48.496;9.098;2023-03-19T18:19:51;9.75;;;3.20;;
16624;SDS011;8426;48.496;9.098;2023-03-19T18:24:55;3.95;;;1.80;;
16624;SDS011;8426;48.496;9.098;2023-03-19T18:30:00;5.38;;;2.28;;
16624;SDS011;8426;48.496;9.098;2023-03-19T18:35:08;5.43;;;2.20;;
16624;SDS011;8426;48.496;9.098;2023-03-19T18:40:26;1.73;;;1.10;;
16624;SDS011;8426;48.496;9.098;2023-03-19T18:45:41;2.50;;;1.05;;
16624;SDS011;8426;48.496;9.098;2023-03-19T18:50:47;1.17;;;0.50;;
16624;SDS011;8426;48.496;9.098;2023-03-19T18:55:51;0.57;;;0.35;;
16624;SDS011;8426;48.496;9.098;2023-03-19T19:00:56;1.70;;;0.40;;
16624;SDS011;8426;48.496;9.098;2023-03-19T19:06:02;0.50;;;0.30;;
16624;SDS011;8426;48.496;9.098;2023-03-19T19:11:05;0.73;;;0.50;;
16624;SDS011;8426;48.496;9.098;2023-03-19T19:16:14;1.10;;;0.40;;
16624;SDS011;8426;48.496;9.098;2023-03-19T19:21:20;1.05;;;0.50;;
16624;SDS011;8426;48.496;9.098;2023-03-19T19:26:24;1.27;;;0.80;;
16624;SDS011;8426;48.496;9.098;2023-03-19T19:31:32;1.00;;;0.85;;
16624;SDS011;8426;48.496;9.098;2023-03-19T19:36:39;3.22;;;1.33;;
16624;SDS011;8426;48.496;9.098;2023-03-19T19:41:42;1.42;;;0.73;;
16624;SDS011;8426;48.496;9.098;2023-03-19T19:46:49;1.38;;;1.00;;
16624;SDS011;8426;48.496;9.098;2023-03-19T19:51:56;2.22;;;0.80;;
16624;SDS011;8426;48.496;9.098;2023-03-19T19:56:59;2.20;;;1.10;;
16624;SDS011;8426;48.496;9.098;2023-03-19T20:02:07;1.67;;;0.80;;
16624;SDS011;8426;48.496;9.098;2023-03-19T20:07:19;2.70;;;0.70;;
16624;SDS011;8426;48.496;9.098;2023-03-19T20:12:25;2.45;;;0.90;;
16624;SDS011;8426;48.496;9.098;2023-03-19T20:17:36;1.17;;;0.70;;
16624;SDS011;8426;48.496;9.098;2023-03-19T20:28:17;1.75;;;0.80;;
16624;SDS011;8426;48.496;9.098;2023-03-19T20:33:27;0.57;;;0.57;;
16624;SDS011;8426;48.496;9.098;2023-03-19T20:38:33;1.02;;;0.80;;
16624;SDS011;8426;48.496;9.098;2023-03-19T20:43:37;1.08;;;0.77;;
16624;SDS011;8426;48.496;9.098;2023-03-19T20:48:47;0.82;;;0.60;;
16624;SDS011;8426;48.496;9.098;2023-03-19T20:54:02;1.05;;;0.80;;
16624;SDS011;8426;48.496;9.098;2023-03-19T20:59:08;1.70;;;0.98;;
16624;SDS011;8426;48.496;9.098;2023-03-19T21:04:17;0.60;;;0.60;;
16624;SDS011;8426;48.496;9.098;2023-03-19T21:09:22;1.95;;;0.85;;
16624;SDS011;8426;48.496;9.098;2023-03-19T21:14:26;2.78;;;1.27;;
16624;SDS011;8426;48.496;9.098;2023-03-19T21:19:34;2.03;;;1.20;;
16624;SDS011;8426;48.496;9.098;2023-03-19T21:24:37;2.42;;;1.40;;
16624;SDS011;8426;48.496;9.098;2023-03-19T21:29:51;1.38;;;0.98;;
16624;SDS011;8426;48.496;9.098;2023-03-19T21:34:56;1.35;;;0.90;;
16624;SDS011;8426;48.496;9.098;2023-03-19T21:40:01;1.00;;;0.90;;
16624;SDS011;8426;48.496;9.098;2023-03-19T21:45:04;0.70;;;0.70;;
16624;SDS011;8426;48.496;9.098;2023-03-19T21:50:14;1.98;;;1.02;;
16624;SDS011;8426;48.496;9.098;2023-03-19T21:55:18;3.80;;;1.50;;
16624;SDS011;8426;48.496;9.098;2023-03-19T22:00:23;1.90;;;0.95;;
16624;SDS011;8426;48.496;9.098;2023-03-19T22:05:28;1.98;;;1.40;;
16624;SDS011;8426;48.496;9.098;2023-03-19T22:10:32;2.50;;;1.52;;
16624;SDS011;8426;48.496;9.098;2023-03-19T22:15:36;2.53;;;1.60;;
16624;SDS011;8426;48.496;9.098;2023-03-19T22:20:42;2.95;;;1.63;;
16624;SDS011;8426;48.496;9.098;2023-03-19T22:25:48;4.35;;;2.40;;
16624;SDS011;8426;48.496;9.098;2023-03-19T22:30:52;6.88;;;2.85;;
16624;SDS011;8426;48.496;9.098;2023-03-19T22:35:58;3.53;;;1.77;;
16624;SDS011;8426;48.496;9.098;2023-03-19T22:41:02;4.90;;;2.13;;
16624;SDS011;8426;48.496;9.098;2023-03-19T22:46:14;4.97;;;1.73;;
16624;SDS011;8426;48.496;9.098;2023-03-19T22:51:25;3.90;;;1.70;;
16624;SDS011;8426;48.496;9.098;2023-03-19T22:56:29;5.78;;;1.60;;
16624;SDS011;8426;48.496;9.098;2023-03-19T23:01:33;2.35;;;1.17;;
16624;SDS011;8426;48.496;9.098;2023-03-19T23:06:41;2.78;;;1.40;;
16624;SDS011;8426;48.496;9.098;2023-03-19T23:11:45;2.83;;;1.40;;
16624;SDS011;8426;48.496;9.098;2023-03-19T23:16:49;2.78;;;1.40;;
16624;SDS011;8426;48.496;9.098;2023-03-19T23:21:54;2.05;;;1.33;;
16624;SDS011;8426;48.496;9.098;2023-03-19T23:26:59;1.80;;;1.13;;
16624;SDS011;8426;48.496;9.098;2023-03-19T23:32:03;1.60;;;1.20;;
16624;SDS011;8426;48.496;9.098;2023-03-19T23:37:08;2.08;;;1.23;;
16624;SDS011;8426;48.496;9.098;2023-03-19T23:42:15;2.95;;;1.10;;
16624;SDS011;8426;48.496;9.098;2023-03-19T23:47:26;2.70;;;1.13;;
16624;SDS011;8426;48.496;9.098;2023-03-19T23:52:32;1.13;;;1.00;;
16624;SDS011;8426;48.496;9.098;2023-03-19T23:57:36;1.70;;;1.10;;
